Aktualne dane pomiarowe

Uwaga, wersja testowa! Automatyczne pobieranie danych za pomocą narzędzi lub skryptów to umożliwiających jest zabronione.

Dane meteo z obszaru Polski uzyskane na podstawie depesz SYNOP pobieranych co godzinę z NWS. Najedź myszką na symbol przedstawiony w tabeli, aby uzyskać informacje co do jego znaczenia. Prosimy pamiętać, że to testowa wersja strony, która jeszcze nie jest ukończona. Stworzono również jest krótki FAQ dotyczący korzystania z tej podstrony Anomalie temperatury w chwili obecnej odniesione są do okresu referencyjnego 1951-2016. Okres ten będzie później zmieniony na 1981-2010. Kliknij ikonę aby pobrać plik CSV. Kliknij ikonę aby wygenerować mapę synoptyczną dla danego terminu.

Wybierz Datę:    

        

Mikołajki (12280)

Dane terminowe dla wybranej stacji. Kliknij datę, aby otrzymać dane z tego terminu dla wszystkich stacji.

TemperaturaZachmurzenieWiatrCiśnienieOpadyPogoda
 Data t td wb tx tn tg rh  Nt Nl Cl Cm Ch ws wd g1 g2 wx mslp ppp ch 24h 12h t ww ww w1 w2  
2019-07-07 23:00:00 13.1 10.8 11.5--- 8650.0wxwxwx4wx--41005.4 990.2 0.3---------
2019-07-07 22:00:00 12.8 11.4 11.8--- 9150.0wxwxwx3wx--31005.4 990.2 0.5---------
2019-07-07 21:00:00 12.8 11.4 11.8--- 9150.0wxwxwx3wx--31005.2 990.0 0.7---wx---
2019-07-07 20:00:00 13.1 11.2 11.8--- 8850.0wxwxwx3wx--31005.1 989.9 0.8---------
2019-07-07 19:00:00 13.1 11.0 11.7--- 8750.0wxwxwx3wx---1004.9 989.7 1.1---------
2019-07-07 18:00:00 13.1 11.0 11.7 18.3 12.9- 8750.0wxwxwx3wx-1431004.5 989.3 0.8- 0.712wx---
2019-07-07 17:00:00 12.9 10.4 11.2--- 857.0wxwxwx6wx13--1004.3 989.1 0.5---wx---
2019-07-07 16:00:00 16.3 8.3 11.6--- 5950.0wxwxwxwx5wx10--1003.6 988.6 0.1---------
2019-07-07 15:00:00 17.3 8.4 12.1--- 5630.0wxwxwx6wx111261003.5 988.5 0.0---wx-w1--
2019-07-07 14:00:00 16.4 8.6 11.8--- 6045.0wxwxwx3wx--31003.6 988.6 0.3---wx---
2019-07-07 13:00:00 16.9 7.5 11.5--- 5440.0wxwxwx4wx9--1003.5 988.5 0.2---------
2019-07-07 12:00:00 16.7 8.1 11.7--- 5735.0wxwxwx5wx121251003.5 988.5 0.9- 0.06------
2019-07-07 11:00:00 16.1 7.8 11.3--- 5835.0wxwxwx6wx11--1003.3 988.3 0.9---------
2019-07-07 10:00:00 15.5 8.5 11.3--- 6335.0wxwxwx4wx91241003.4 988.3 1.2---------
2019-07-07 09:00:00 16.7 7.6 11.5--- 5535.0wxwxwx4wx-1241002.6 987.6 0.5---------
2019-07-07 08:00:00 16.7 8.1 11.7--- 5735.0wxwxwxwx5wx111251002.4 987.4 0.2---------
2019-07-07 07:00:00 15.9 8.1 11.3--- 6030.0wxwxwxwx5wx101151002.1 987.1 -0.1---------
2019-07-07 06:00:00 15.3 8.1 11.0 16.3 14.2 13 6230.0wxwxwxwx4wx91041002.1 987.1 -0.1 1.0 1.012----- 8.2
2019-07-07 05:00:00 14.5 10.7 12.0--- 7835.0wxwxwxwx4wx-1041002.3 987.2 0.0---------
2019-07-07 04:00:00 15.0 12.9 13.5--- 8728.0wxwxwxwx4wx--41002.3 987.2 -0.5---------
2019-07-07 03:00:00 14.5 13.5 13.8--- 9416.0wxwxwxwx3wx-831002.3 987.2 -0.7---------
2019-07-07 02:00:00 14.4 13.3 13.6--- 9315.0wxwxwxwxwx3wx--31002.3 987.2 -0.9---------
2019-07-07 01:00:00 14.5 13.5 13.8--- 9414.0wxwxwxwxwx3wx8--1002.8 987.7 -0.6---------
2019-07-07 00:00:00 14.6 13.8 14.0--- 9511.0wxwxwxwx3wx--31003.0 987.9 -0.9- 1.06wx-w1--
2019-07-06 23:00:00 14.6 13.6 13.9--- 9414.0wxwxwx3wx--31003.2 988.1 -1.1---wx-w1--
2019-07-06 22:00:00 15.0 13.5 13.9--- 9119.0wxwxwxwx3wx--31003.4 988.3 -1.1---wx---
2019-07-06 21:00:00 14.9 13.6 14.0--- 9223.0wxwxwx3wx--31003.9 988.8 -1.1---wx---
2019-07-06 20:00:00 15.3 13.1 13.8--- 8720.0wxwxwx3wx--31004.3 989.2 -1.4---wx-w1--
2019-07-06 19:00:00 16.2 12.4 13.7--- 7845.0wxwxwx2wx--21004.4 989.4 -1.7---------
2019-07-06 18:00:00 15.6 12.2 13.3 19.7 14.1- 8045.0wxwxwx1wx-811005.0 989.9 -1.5--12wx-w1--
2019-07-06 17:00:00 16.0 11.6 13.1--- 7545.0wxwxwx1wx--11005.7 990.6 -1.2---wx---
2019-07-06 16:00:00 16.2 11.4 13.1--- 739.0wxwxwxwx3wx--31006.2 991.1 -0.9---wx---
2019-07-06 15:00:00 17.0 11.3 13.4--- 6945.0wxwxwxwx2wx-821006.4 991.4 -1.0---wx-w1--
2019-07-06 14:00:00 17.7 10.3 13.2--- 6250.0wxwxwxwx2wx--21006.8 991.8 -0.7---------
2019-07-06 13:00:00 18.5 9.8 13.3--- 5735.0wxwxwxwx2wx--21007.0 992.0 -0.6---wx---
2019-07-06 12:00:00 18.4 7.2 12.1--- 4840.0wxwxwxwx3wx-1231007.4 992.4 -0.4- 0.06------
2019-07-06 11:00:00 19.1 6.6 12.2--- 4430.0wxwxwxwxwx4wx-1041007.4 992.5 -0.4---------
2019-07-06 10:00:00 18.7 7.5 12.3--- 4830.0wxwxwxwxwx5wx121251007.6 992.6 -0.3---------
2019-07-06 09:00:00 17.3 7.1 11.5--- 5130.0wxwxwxwx5wx121251007.8 992.8 -0.3---------
2019-07-06 08:00:00 16.3 7.0 11.0--- 5430.0wx-wx5wx121251008.0 992.9 0.0---------
2019-07-06 07:00:00 16.2 10.1 12.4--- 6740.0wx-wx3wx--31008.0 992.9 -0.1---------
2019-07-06 06:00:00 14.3 9.5 11.3 16.0 9.7 8 7340.0wx-wx3wx8931008.3 993.1 0.0 3.2 0.012----- 7.7
2019-07-06 05:00:00 13.0 8.3 10.1--- 7335.0wx-wx2wx--21008.2 992.9 -0.3---------
2019-07-06 04:00:00 11.3 8.0 9.2--- 8035.0wx-wx4wx--41008.4 993.0 -0.5---------
2019-07-06 03:00:00 9.8 6.9 7.9--- 8250.0wx-wx4wx-941008.5 993.1 -0.5---------
2019-07-06 02:00:00 10.0 6.5 7.8--- 7950.0wx-wx5wx--51008.6 993.2 -0.5---------
2019-07-06 01:00:00 10.4 6.5 8.0--- 7750.0wx-wx5wx--51008.9 993.5 -0.1---------
2019-07-06 00:00:00 10.6 6.9 8.3--- 7850.0wx-4wx--41009.0 993.6 -0.1- 0.06------
1.2 ms

 

Print Friendly, PDF & Email